CZFM/ZFM METAR and TAF weather

Enter ICAO airport designator
Station Type Date Time Source
CZFM METAR 2019/02/23 00:00 UTC NOAA

CZFM 230000Z 12005KT 35SM -SN BKN014 M17/M20 A3049 RMK SC5 S68.0 AFT 15UTC TR/LAST OBS/NXT 231400Z SLP333


Station Type Date Time Source
CZFM Decoded METAR 2019/02/23 00:00 UTC NOAA

Fort Mcpherson Airport, Canada (CZFM) 67-24N 134-51W
Feb 22, 2019 - 07:00 PM EST / 2019.02.23 0000 UTC
Wind: from the ESE (120 degrees) at 6 MPH (5 KT):0
Visibility: 35 mile(s):0
Sky conditions: mostly cloudy
Weather: light snow
Temperature: 1 F (-17 C)
Windchill: -11 F (-24 C):2
Dew Point: -4 F (-20 C)
Relative Humidity: 77%
Pressure (altimeter): 30.49 in. Hg (1032 hPa)
ob: CZFM 230000Z 12005KT 35SM -SN BKN014 M17/M20 A3049 RMK SC5 S68.0 AFT 15UTC TR/LAST OBS/NXT 231400Z SLP333
cycle: 0

Station Type Date Time Source
CZFM TAF 2019/02/22 22:09 UTC NOAA

TAF
AMD TAF
AMD CZFM 222208Z 2222/2224 VRB03KT P6SM -SN BKN015
TEMPO 2222/2224 P6SM NSW SCT015
RMK NXT FCST WILL BE ISSUED AT 231545Z


Example: see airport list